createdAt,value
2019-04-14T00:01:36.976Z,4.24
2019-04-14T00:04:13.925Z,4.24
2019-04-14T00:06:44.185Z,4.26
2019-04-14T00:09:16.254Z,4.26
2019-04-14T00:11:46.376Z,4.25
2019-04-14T00:14:16.393Z,4.23
2019-04-14T00:16:46.673Z,4.24
2019-04-14T00:19:15.524Z,4.24
2019-04-14T00:21:45.451Z,4.23
2019-04-14T00:24:14.782Z,4.28
2019-04-14T00:26:44.517Z,4.25
2019-04-14T00:29:13.494Z,4.25
2019-04-14T00:31:43.322Z,4.28
2019-04-14T00:34:35.310Z,4.27
2019-04-14T00:37:29.495Z,4.25
2019-04-14T00:40:03.954Z,4.27
2019-04-14T00:42:45.421Z,4.26
2019-04-14T00:45:32.178Z,4.23
2019-04-14T00:48:09.077Z,4.22
2019-04-14T00:50:31.996Z,4.24
2019-04-14T00:53:01.251Z,4.20
2019-04-14T00:55:31.441Z,4.18
2019-04-14T00:58:01.625Z,4.16
2019-04-14T01:00:32.026Z,4.15
2019-04-14T01:03:01.037Z,4.11
2019-04-14T01:05:32.628Z,4.11
2019-04-14T01:08:00.961Z,4.05
2019-04-14T01:10:32.785Z,4.04
2019-04-14T01:13:02.855Z,4.05
2019-04-14T01:15:44.854Z,4.06
2019-04-14T01:18:03.526Z,4.04
2019-04-14T01:20:33.865Z,4.03
2019-04-14T01:23:04.082Z,4.00
2019-04-14T01:25:33.197Z,3.99
2019-04-14T01:28:02.505Z,3.94
2019-04-14T01:30:32.628Z,3.94
2019-04-14T01:33:03.288Z,3.91
2019-04-14T01:35:33.440Z,3.93
2019-04-14T01:38:03.681Z,3.87
2019-04-14T01:40:33.791Z,3.86
2019-04-14T01:43:03.836Z,3.87
2019-04-14T01:45:34.563Z,3.86
2019-04-14T01:48:03.856Z,3.80
2019-04-14T01:50:49.481Z,3.81
2019-04-14T01:53:29.299Z,3.76
2019-04-14T01:56:05.699Z,3.76
2019-04-14T01:58:44.710Z,3.73
2019-04-14T02:01:21.715Z,3.73
2019-04-14T02:03:51.932Z,3.70
2019-04-14T02:06:22.323Z,3.64
2019-04-14T02:08:52.206Z,3.64
2019-04-14T02:11:22.536Z,3.62
2019-04-14T02:14:37.195Z,3.62
2019-04-14T02:57:01.992Z,3.21
2019-04-14T02:59:19.717Z,3.15
2019-04-14T03:02:10.299Z,3.13
2019-04-14T03:04:25.825Z,3.11
2019-04-14T03:06:55.157Z,3.09
2019-04-14T03:09:38.793Z,3.10
2019-04-14T03:14:31.210Z,3.05
2019-04-14T03:20:20.730Z,3.07
2019-04-14T03:22:43.898Z,3.06
2019-04-14T03:25:09.797Z,3.08
2019-04-14T03:27:54.748Z,3.09
2019-04-14T03:36:08.984Z,3.04
2019-04-14T03:43:11.293Z,2.99
2019-04-14T03:45:45.119Z,2.96
2019-04-14T03:48:48.629Z,2.94
2019-04-14T03:50:37.058Z,2.94
2019-04-14T03:55:58.506Z,2.93
2019-04-14T03:58:22.591Z,2.92
2019-04-14T04:00:51.656Z,2.91
2019-04-14T04:03:21.673Z,2.90
2019-04-14T04:05:52.077Z,2.85
2019-04-14T04:08:22.248Z,2.82
2019-04-14T04:10:51.825Z,2.73
2019-04-14T04:13:21.995Z,2.71
2019-04-14T04:15:52.015Z,2.69
2019-04-14T04:18:24.107Z,2.71
2019-04-14T04:21:09.546Z,2.71
2019-04-14T04:24:00.314Z,2.71
2019-04-14T04:26:51.793Z,2.71
2019-04-14T04:29:37.829Z,2.67
2019-04-14T04:32:29.761Z,2.63
2019-04-14T04:35:08.555Z,2.63
2019-04-14T04:37:50.190Z,2.62
2019-04-14T04:40:24.941Z,2.58
2019-04-14T04:42:54.819Z,2.61
2019-04-14T04:45:23.955Z,2.61
2019-04-14T04:47:53.499Z,2.63
2019-04-14T04:50:22.416Z,2.61
2019-04-14T04:52:51.816Z,2.63
2019-04-14T04:55:21.989Z,2.65
2019-04-14T04:57:51.054Z,2.63
2019-04-14T05:00:22.204Z,2.62
2019-04-14T05:02:51.085Z,2.65
2019-04-14T05:05:56.011Z,2.64
2019-04-14T05:08:26.198Z,2.66
2019-04-14T05:11:01.119Z,2.66
2019-04-14T05:13:35.931Z,2.63
2019-04-14T05:16:06.241Z,2.61
2019-04-14T05:18:35.552Z,2.59
2019-04-14T05:21:05.961Z,2.47
2019-04-14T05:23:35.089Z,2.61
2019-04-14T05:26:04.868Z,2.61
2019-04-14T05:28:33.707Z,2.65
2019-04-14T05:31:03.340Z,2.63
2019-04-14T05:33:33.565Z,2.65
2019-04-14T05:36:06.257Z,2.69
2019-04-14T05:38:36.653Z,2.73
2019-04-14T05:41:06.869Z,2.77
2019-04-14T05:43:56.568Z,2.81
2019-04-14T05:46:23.066Z,2.83
2019-04-14T05:48:52.071Z,2.88
2019-04-14T05:51:23.125Z,2.93
2019-04-14T05:53:52.397Z,2.95
2019-04-14T05:56:21.624Z,3.02
2019-04-14T05:58:51.528Z,3.07
2019-04-14T06:01:27.050Z,3.15
2019-04-14T06:03:56.144Z,3.18
2019-04-14T06:06:25.250Z,3.25
2019-04-14T06:08:54.326Z,3.32
2019-04-14T06:11:23.329Z,3.39
2019-04-14T06:13:52.385Z,3.47
2019-04-14T06:16:29.689Z,3.55
2019-04-14T06:18:58.607Z,3.64
2019-04-14T06:21:27.645Z,3.75
2019-04-14T06:23:56.636Z,3.88
2019-04-14T06:26:25.563Z,4.07
2019-04-14T06:28:56.570Z,4.24
2019-04-14T06:31:46.344Z,4.40
2019-04-14T06:34:20.023Z,4.53
2019-04-14T06:36:59.060Z,4.62
2019-04-14T06:39:36.979Z,4.64
2019-04-14T06:42:06.112Z,4.64
2019-04-14T06:44:36.109Z,4.51
2019-04-14T06:47:05.191Z,4.52
2019-04-14T06:49:48.223Z,4.53
2019-04-14T06:52:07.087Z,4.67
2019-04-14T06:54:36.116Z,5.05
2019-04-14T06:57:05.223Z,5.41
2019-04-14T06:59:36.193Z,5.76
2019-04-14T07:02:05.259Z,6.17
2019-04-14T07:04:34.246Z,6.57
2019-04-14T07:07:03.172Z,7.14
2019-04-14T07:09:33.244Z,7.54
2019-04-14T07:12:02.391Z,7.91
2019-04-14T07:14:32.089Z,8.51
2019-04-14T07:17:01.344Z,9.08
2019-04-14T07:19:39.806Z,9.73
2019-04-14T07:22:08.859Z,10.39
2019-04-14T07:24:37.962Z,10.78
2019-04-14T07:27:06.855Z,11.17
2019-04-14T07:29:42.114Z,11.81
2019-04-14T07:32:40.600Z,12.18
2019-04-14T07:35:34.463Z,12.56
2019-04-14T07:38:10.644Z,13.00
2019-04-14T07:41:04.383Z,12.83
2019-04-14T07:43:47.112Z,13.14
2019-04-14T07:46:49.217Z,13.52
2019-04-14T07:49:39.935Z,13.86
2019-04-14T07:52:40.767Z,14.06
2019-04-14T07:55:31.724Z,13.38
2019-04-14T07:58:06.500Z,13.33
2019-04-14T08:00:52.632Z,13.49
2019-04-14T08:03:33.548Z,13.14
2019-04-14T08:06:02.530Z,13.16
2019-04-14T08:08:31.384Z,12.93
2019-04-14T08:11:00.372Z,12.44
2019-04-14T08:13:31.634Z,12.40
2019-04-14T08:16:00.743Z,12.26
2019-04-14T08:18:29.961Z,12.28
2019-04-14T08:21:00.681Z,12.36
2019-04-14T08:23:29.676Z,12.12
2019-04-14T08:25:58.760Z,11.88
2019-04-14T08:28:34.981Z,11.92
2019-04-14T08:31:04.048Z,12.12
2019-04-14T08:33:33.192Z,11.72
2019-04-14T08:36:13.328Z,12.02
2019-04-14T08:38:42.407Z,12.15
2019-04-14T08:41:11.418Z,12.20
2019-04-14T08:44:02.585Z,12.07
2019-04-14T08:46:49.844Z,12.03
2019-04-14T08:49:49.750Z,12.25
2019-04-14T08:52:36.088Z,12.14
2019-04-14T08:55:16.283Z,12.21
2019-04-14T08:57:52.814Z,11.75
2019-04-14T09:00:32.114Z,12.06
2019-04-14T09:03:20.140Z,12.16
2019-04-14T09:06:03.470Z,12.52
2019-04-14T09:08:36.792Z,12.44
2019-04-14T09:11:07.463Z,12.42
2019-04-14T09:13:42.536Z,11.92
2019-04-14T09:16:11.491Z,11.98
2019-04-14T09:18:40.594Z,12.18
2019-04-14T09:21:09.451Z,11.95
2019-04-14T09:23:38.522Z,12.29
2019-04-14T09:26:07.572Z,12.47
2019-04-14T09:28:36.575Z,11.94
2019-04-14T09:31:05.609Z,12.44
2019-04-14T09:33:37.927Z,11.99
2019-04-14T09:36:07.038Z,11.96
2019-04-14T09:38:36.031Z,11.81
2019-04-14T09:41:05.129Z,11.30
2019-04-14T09:43:34.064Z,11.32
2019-04-14T09:46:03.198Z,11.53
2019-04-14T09:48:32.123Z,11.28
2019-04-14T09:51:09.211Z,10.78
2019-04-14T09:53:42.648Z,11.18
2019-04-14T09:56:11.740Z,11.26
2019-04-14T09:58:40.984Z,11.45
2019-04-14T10:01:10.066Z,11.60
2019-04-14T10:03:43.017Z,11.81
2019-04-14T10:06:13.058Z,11.80
2019-04-14T10:08:44.150Z,11.78
2019-04-14T10:11:15.421Z,11.77
2019-04-14T10:13:52.476Z,11.11
2019-04-14T10:16:21.545Z,11.67
2019-04-14T10:18:50.678Z,11.88
2019-04-14T10:21:19.705Z,11.93
2019-04-14T10:23:51.843Z,12.06
2019-04-14T10:26:24.226Z,12.41
2019-04-14T10:29:00.255Z,12.50
2019-04-14T10:31:29.354Z,12.61
2019-04-14T10:33:58.333Z,12.78
2019-04-14T10:36:27.554Z,12.80
2019-04-14T10:38:56.588Z,12.71
2019-04-14T10:41:25.506Z,12.87
2019-04-14T10:43:55.594Z,12.84
2019-04-14T10:46:24.630Z,12.32
2019-04-14T10:48:54.733Z,12.59
2019-04-14T10:51:30.055Z,12.79
2019-04-14T10:53:56.506Z,13.00
2019-04-14T10:56:25.594Z,12.84
2019-04-14T10:58:54.778Z,12.97
2019-04-14T11:01:27.034Z,13.20
2019-04-14T11:04:09.102Z,13.05
2019-04-14T11:07:09.125Z,13.16
2019-04-14T11:10:02.388Z,12.39
2019-04-14T11:12:36.191Z,11.90
2019-04-14T11:15:30.556Z,12.31
2019-04-14T11:18:06.764Z,12.34
2019-04-14T11:20:35.659Z,12.54
2019-04-14T11:23:16.714Z,12.59
2019-04-14T11:25:46.823Z,12.55
2019-04-14T11:28:15.754Z,12.50
2019-04-14T11:30:44.784Z,12.71
2019-04-14T11:33:32.048Z,12.75
2019-04-14T11:36:23.130Z,12.21
2019-04-14T11:38:59.962Z,12.44
2019-04-14T11:41:28.861Z,12.63
2019-04-14T11:43:57.957Z,12.48
2019-04-14T11:46:26.847Z,12.37
2019-04-14T11:48:56.127Z,12.38
2019-04-14T11:51:25.055Z,12.38
2019-04-14T11:53:54.177Z,12.19
2019-04-14T11:56:23.621Z,12.50
2019-04-14T11:58:56.007Z,12.66
2019-04-14T12:01:53.145Z,12.62
2019-04-14T12:04:52.919Z,12.74
2019-04-14T12:07:43.798Z,12.94
2019-04-14T12:10:15.874Z,13.04
2019-04-14T12:12:45.061Z,13.07
2019-04-14T12:15:16.524Z,13.01
2019-04-14T12:17:45.320Z,12.85
2019-04-14T12:20:18.789Z,12.77
2019-04-14T12:22:47.975Z,12.80
2019-04-14T12:25:19.525Z,12.77
2019-04-14T12:27:51.572Z,12.82
2019-04-14T12:30:22.296Z,12.84
2019-04-14T12:32:51.783Z,12.96
2019-04-14T12:35:21.031Z,13.08
2019-04-14T12:37:53.429Z,13.01
2019-04-14T12:40:22.641Z,13.14
2019-04-14T12:43:10.725Z,12.88
2019-04-14T12:46:08.175Z,13.02
2019-04-14T12:49:00.170Z,13.12
2019-04-14T12:51:53.734Z,13.07
2019-04-14T12:54:26.591Z,13.01
2019-04-14T12:56:57.950Z,13.17
2019-04-14T12:59:39.155Z,13.03
2019-04-14T13:02:27.549Z,12.64
2019-04-14T13:04:56.585Z,12.61
2019-04-14T13:07:37.927Z,12.41
2019-04-14T13:10:08.160Z,12.30
2019-04-14T13:12:39.550Z,12.03
2019-04-14T13:15:08.755Z,12.14
2019-04-14T13:17:55.618Z,11.99
2019-04-14T13:20:39.149Z,12.11
2019-04-14T13:23:09.335Z,12.28
2019-04-14T13:25:38.690Z,12.12
2019-04-14T13:28:08.076Z,12.03
2019-04-14T13:30:43.999Z,11.97
2019-04-14T13:33:13.212Z,12.20
2019-04-14T13:35:42.396Z,12.09
2019-04-14T13:38:11.544Z,12.28
2019-04-14T13:40:43.930Z,12.29
2019-04-14T13:43:15.200Z,12.24
2019-04-14T13:45:45.176Z,12.05
2019-04-14T13:48:21.608Z,11.90
2019-04-14T13:50:50.786Z,11.72
2019-04-14T13:53:21.035Z,11.53
2019-04-14T13:55:50.211Z,11.53
2019-04-14T13:58:24.620Z,11.36
2019-04-14T14:01:16.840Z,11.31
2019-04-14T14:03:57.377Z,11.22
2019-04-14T14:06:26.480Z,11.15
2019-04-14T14:08:55.544Z,11.17
2019-04-14T14:11:41.986Z,11.22
2019-04-14T14:14:21.824Z,11.13
2019-04-14T14:17:27.225Z,11.15
2019-04-14T14:20:35.806Z,11.12
2019-04-14T14:23:27.684Z,10.92
2019-04-14T14:26:10.522Z,10.89
2019-04-14T14:28:39.732Z,10.91
2019-04-14T14:31:09.075Z,10.87
2019-04-14T14:33:41.542Z,10.94
2019-04-14T14:36:26.680Z,10.98
2019-04-14T14:39:16.331Z,10.96
2019-04-14T14:41:51.601Z,10.84
2019-04-14T14:44:25.651Z,10.83
2019-04-14T14:47:15.120Z,10.85
2019-04-14T14:50:18.211Z,10.94
2019-04-14T14:53:22.176Z,10.99
2019-04-14T14:55:50.522Z,11.09
2019-04-14T14:58:22.228Z,11.13
2019-04-14T15:00:51.377Z,11.12
2019-04-14T15:03:21.524Z,11.14
2019-04-14T15:05:50.521Z,11.25
2019-04-14T15:08:19.641Z,11.01
2019-04-14T15:10:48.775Z,11.09
2019-04-14T15:13:17.904Z,11.10
2019-04-14T15:15:47.052Z,10.92
2019-04-14T15:18:16.161Z,10.79
2019-04-14T15:20:45.226Z,10.85
2019-04-14T15:23:24.850Z,10.85
2019-04-14T15:25:48.963Z,10.91
2019-04-14T15:28:18.395Z,10.82
2019-04-14T15:30:47.540Z,10.81
2019-04-14T15:33:16.718Z,10.76
2019-04-14T15:35:45.826Z,10.79
2019-04-14T15:38:16.838Z,10.83
2019-04-14T15:40:46.148Z,10.89
2019-04-14T15:43:19.949Z,11.03
2019-04-14T15:46:06.592Z,11.17
2019-04-14T15:48:39.658Z,11.29
2019-04-14T15:51:08.902Z,11.41
2019-04-14T15:53:38.565Z,11.44
2019-04-14T15:56:08.654Z,11.46
2019-04-14T15:59:02.704Z,11.45
2019-04-14T16:01:51.181Z,11.34
2019-04-14T16:04:31.829Z,11.14
2019-04-14T16:07:21.762Z,11.01
2019-04-14T16:10:05.955Z,10.74
2019-04-14T16:12:56.713Z,10.32
2019-04-14T16:15:59.946Z,9.96
2019-04-14T16:18:46.751Z,9.99
2019-04-14T16:21:15.865Z,9.88
2019-04-14T16:23:50.885Z,9.81
2019-04-14T16:26:20.761Z,9.71
2019-04-14T16:29:14.925Z,9.65
2019-04-14T16:32:09.188Z,9.51
2019-04-14T16:34:53.979Z,9.49
2019-04-14T16:37:22.950Z,9.44
2019-04-14T16:39:51.939Z,9.41
2019-04-14T16:42:20.889Z,9.34
2019-04-14T16:44:49.998Z,9.20
2019-04-14T16:47:19.046Z,9.07
2019-04-14T16:49:48.116Z,9.00
2019-04-14T16:52:45.399Z,8.94
2019-04-14T16:55:23.618Z,8.99
2019-04-14T16:58:10.513Z,8.84
2019-04-14T17:00:42.883Z,8.87
2019-04-14T17:03:11.810Z,8.71
2019-04-14T17:05:40.685Z,8.63
2019-04-14T17:08:09.576Z,8.55
2019-04-14T17:10:38.451Z,8.43
2019-04-14T17:13:07.467Z,8.38
2019-04-14T17:15:59.414Z,8.43
2019-04-14T17:19:04.610Z,8.37
2019-04-14T17:21:49.739Z,8.29
2019-04-14T17:24:32.823Z,8.34
2019-04-14T17:27:10.887Z,8.30
2019-04-14T17:29:49.249Z,8.22
2019-04-14T17:32:30.420Z,8.15
2019-04-14T17:35:21.259Z,8.08
2019-04-14T17:37:53.783Z,8.01
2019-04-14T17:40:33.002Z,7.94
2019-04-14T17:43:11.882Z,7.88
2019-04-14T17:45:58.826Z,7.82
2019-04-14T17:48:47.778Z,7.76
2019-04-14T17:51:35.735Z,7.73
2019-04-14T17:54:30.001Z,7.70
2019-04-14T17:57:16.812Z,7.65
2019-04-14T17:59:54.141Z,7.61
2019-04-14T18:02:30.804Z,7.57
2019-04-14T18:05:09.098Z,7.52
2019-04-14T18:08:06.253Z,7.50
2019-04-14T18:10:44.159Z,7.44
2019-04-14T18:13:20.674Z,7.38
2019-04-14T18:16:01.449Z,7.34
2019-04-14T18:18:51.425Z,7.29
2019-04-14T18:21:20.450Z,7.28
2019-04-14T18:23:49.486Z,7.20
2019-04-14T18:26:18.440Z,7.21
2019-04-14T18:29:13.293Z,7.16
2019-04-14T18:31:52.180Z,7.16
2019-04-14T18:34:52.498Z,7.10
2019-04-14T18:37:43.802Z,7.12
2019-04-14T18:40:40.943Z,7.14
2019-04-14T18:43:31.988Z,7.12
2019-04-14T18:46:20.051Z,7.10
2019-04-14T18:48:57.248Z,7.08
2019-04-14T18:51:34.623Z,7.08
2019-04-14T18:54:38.146Z,7.00
2019-04-14T18:57:24.178Z,7.05
2019-04-14T19:00:03.526Z,7.03
2019-04-14T19:02:32.528Z,7.05
2019-04-14T19:05:01.501Z,7.02
2019-04-14T19:07:30.476Z,6.99
2019-04-14T19:09:59.543Z,6.98
2019-04-14T19:12:45.386Z,6.91
2019-04-14T19:15:38.671Z,6.91
2019-04-14T19:18:44.763Z,6.91
2019-04-14T19:21:18.631Z,6.89
2019-04-14T19:23:48.687Z,6.86
2019-04-14T19:26:27.375Z,6.84
2019-04-14T19:28:56.351Z,6.86
2019-04-14T19:31:27.283Z,6.84
2019-04-14T19:33:56.239Z,6.83
2019-04-14T19:36:25.272Z,6.83
2019-04-14T19:38:54.288Z,6.79
2019-04-14T19:41:23.300Z,6.76
2019-04-14T19:43:52.186Z,6.78
2019-04-14T19:46:21.672Z,6.81
2019-04-14T19:48:50.656Z,6.81
2019-04-14T19:51:20.525Z,6.83
2019-04-14T19:53:57.507Z,6.82
2019-04-14T19:56:26.502Z,6.82
2019-04-14T19:58:55.496Z,6.85
2019-04-14T20:01:24.445Z,6.82
2019-04-14T20:03:53.422Z,6.81
2019-04-14T20:06:22.656Z,6.79
2019-04-14T20:08:52.676Z,6.79
2019-04-14T20:11:23.687Z,6.79
2019-04-14T20:13:52.648Z,6.81
2019-04-14T20:16:39.451Z,6.82
2019-04-14T20:19:27.926Z,6.81
2019-04-14T20:22:09.917Z,6.82
2019-04-14T20:24:47.475Z,6.81
2019-04-14T20:27:23.414Z,6.81
2019-04-14T20:29:54.764Z,6.77
2019-04-14T20:32:26.679Z,6.75
2019-04-14T20:34:55.775Z,6.73
2019-04-14T20:37:25.975Z,6.70
2019-04-14T20:39:55.968Z,6.70
2019-04-14T20:42:24.957Z,6.69
2019-04-14T20:44:54.275Z,6.65
2019-04-14T20:47:23.282Z,6.63
2019-04-14T20:49:52.118Z,6.63
2019-04-14T20:52:21.937Z,6.61
2019-04-14T20:54:51.845Z,6.59
2019-04-14T20:57:20.837Z,6.58
2019-04-14T20:59:49.716Z,6.57
2019-04-14T21:02:38.775Z,6.56
2019-04-14T21:05:29.836Z,6.56
2019-04-14T21:08:23.902Z,6.56
2019-04-14T21:11:04.357Z,6.55
2019-04-14T21:13:52.264Z,6.54
2019-04-14T21:16:31.016Z,6.52
2019-04-14T21:19:08.012Z,6.50
2019-04-14T21:22:03.011Z,6.46
2019-04-14T21:24:42.420Z,6.41
2019-04-14T21:27:17.736Z,6.41
2019-04-14T21:30:04.331Z,6.40
2019-04-14T21:32:37.888Z,6.38
2019-04-14T21:35:25.887Z,6.37
2019-04-14T21:38:08.994Z,6.36
2019-04-14T21:40:59.843Z,6.36
2019-04-14T21:43:28.953Z,6.37
2019-04-14T21:45:58.958Z,6.48
2019-04-14T21:48:27.782Z,6.41
2019-04-14T21:50:56.667Z,6.40
2019-04-14T21:53:25.605Z,6.40
2019-04-14T21:55:54.573Z,6.39
2019-04-14T21:58:41.120Z,6.38
2019-04-14T22:01:50.556Z,6.35
2019-04-14T22:04:36.285Z,6.34
2019-04-14T22:07:20.087Z,6.31
2019-04-14T22:09:49.448Z,6.28
2019-04-14T22:12:18.350Z,6.26
2019-04-14T22:14:48.194Z,6.23
2019-04-14T22:17:17.158Z,6.19
2019-04-14T22:19:46.006Z,6.20
2019-04-14T22:22:14.740Z,6.19
2019-04-14T22:24:43.739Z,6.20
2019-04-14T22:27:12.571Z,6.20
2019-04-14T22:29:41.433Z,6.22
2019-04-14T22:32:10.696Z,6.25
2019-04-14T22:34:39.588Z,6.24
2019-04-14T22:37:08.569Z,6.27
2019-04-14T22:39:39.269Z,6.27
2019-04-14T22:42:08.127Z,6.29
2019-04-14T22:44:37.021Z,6.29
2019-04-14T22:47:06.002Z,6.28
2019-04-14T22:49:34.897Z,6.29
2019-04-14T22:52:04.012Z,6.30
2019-04-14T22:54:32.894Z,6.30
2019-04-14T22:57:01.801Z,6.32
2019-04-14T22:59:30.650Z,6.31
2019-04-14T23:02:06.832Z,6.32
2019-04-14T23:05:00.466Z,6.31
2019-04-14T23:07:45.478Z,6.33
2019-04-14T23:10:48.787Z,6.33
2019-04-14T23:13:36.684Z,6.34
2019-04-14T23:16:24.540Z,6.33
2019-04-14T23:19:02.065Z,6.33
2019-04-14T23:22:01.978Z,6.33
2019-04-14T23:24:34.312Z,6.34
2019-04-14T23:27:03.199Z,6.36
2019-04-14T23:29:32.294Z,6.36
2019-04-14T23:32:01.131Z,6.37
2019-04-14T23:34:30.012Z,6.37
2019-04-14T23:36:58.956Z,6.39
2019-04-14T23:39:27.867Z,6.40
2019-04-14T23:41:56.751Z,6.37
2019-04-14T23:44:25.774Z,6.37
2019-04-14T23:46:54.565Z,6.37
2019-04-14T23:49:23.446Z,6.37
2019-04-14T23:51:52.911Z,6.37
2019-04-14T23:54:21.942Z,6.38
2019-04-14T23:56:50.882Z,6.38
2019-04-14T23:59:19.721Z,6.40
